Time;durP1;ratioP1;P1;durP2;ratioP2;P2;SDS_P1;SDS_P2;PMS_P1;PMS_P2;Temp;Humidity;BMP_temperature;BMP_pressure;BME280_temperature;BME280_humidity;BME280_pressure;Samples;Min_cycle;Max_cycle;Signal;HPM_P1;HPM_P2
2021/12/27 00:00:17;;;;;;;19.97;11.63;;;3.60;91.00;;;;;;5016994;28;20021;-71
2021/12/27 00:02:43;;;;;;;19.80;11.37;;;3.60;91.00;;;;;;5034830;28;20033;-71
2021/12/27 00:05:09;;;;;;;18.20;10.70;;;3.50;91.00;;;;;;5034574;28;20497;-71
2021/12/27 00:07:35;;;;;;;21.90;12.83;;;3.50;91.10;;;;;;5034780;28;20378;-72
2021/12/27 00:10:02;;;;;;;27.03;13.20;;;3.50;91.20;;;;;;5016146;28;20034;-71
2021/12/27 00:12:28;;;;;;;20.90;12.00;;;3.50;91.30;;;;;;5034435;28;20025;-71
2021/12/27 00:14:53;;;;;;;19.83;11.73;;;3.50;91.40;;;;;;5034783;28;20087;-72
2021/12/27 00:17:19;;;;;;;24.97;13.03;;;3.50;91.40;;;;;;5000645;28;20048;-72
2021/12/27 00:19:45;;;;;;;21.93;12.50;;;3.60;91.50;;;;;;5016464;28;20043;-72
2021/12/27 00:22:10;;;;;;;20.83;11.50;;;3.60;91.50;;;;;;5034477;28;20029;-72
2021/12/27 00:24:36;;;;;;;21.97;11.70;;;3.60;91.60;;;;;;5034329;28;20033;-72
2021/12/27 00:27:02;;;;;;;20.83;12.33;;;3.60;91.60;;;;;;5000365;28;20061;-72
2021/12/27 00:29:28;;;;;;;21.53;11.33;;;3.60;91.60;;;;;;4996907;28;20018;-72
2021/12/27 00:31:53;;;;;;;21.67;11.53;;;3.60;91.70;;;;;;5015542;28;20080;-72
2021/12/27 00:34:19;;;;;;;19.63;11.07;;;3.60;91.70;;;;;;4998994;28;20044;-72
2021/12/27 00:36:45;;;;;;;20.63;11.23;;;3.60;91.80;;;;;;4999538;28;20021;-72
2021/12/27 00:39:11;;;;;;;21.50;12.13;;;3.60;91.90;;;;;;5033838;28;20393;-72
2021/12/27 00:41:36;;;;;;;20.73;11.83;;;3.60;91.90;;;;;;4983886;28;20030;-72
2021/12/27 00:44:02;;;;;;;22.90;12.80;;;3.60;92.00;;;;;;5012242;28;20050;-72
2021/12/27 00:46:28;;;;;;;21.90;12.33;;;3.60;92.00;;;;;;4996575;28;20044;-72
2021/12/27 00:48:54;;;;;;;21.10;11.43;;;3.70;92.10;;;;;;5012488;28;20017;-72
2021/12/27 00:51:19;;;;;;;20.60;11.53;;;3.70;92.10;;;;;;5014111;28;20445;-71
2021/12/27 00:53:45;;;;;;;21.80;12.07;;;3.70;92.20;;;;;;5012758;28;20398;-72
2021/12/27 00:56:10;;;;;;;20.63;12.03;;;3.70;92.20;;;;;;5012915;28;20072;-72
2021/12/27 00:58:36;;;;;;;22.67;12.07;;;3.70;92.20;;;;;;5013955;28;20052;-72
2021/12/27 01:01:02;;;;;;;21.57;11.70;;;3.70;92.30;;;;;;4996346;28;20110;-72
2021/12/27 01:03:28;;;;;;;20.93;12.47;;;3.70;92.30;;;;;;5013998;28;20482;-72
2021/12/27 01:05:54;;;;;;;21.37;12.03;;;3.70;92.40;;;;;;5012812;28;20068;-72
2021/12/27 01:08:19;;;;;;;21.70;12.20;;;3.70;92.40;;;;;;5013585;28;21101;-71
2021/12/27 01:13:37;;;;;;;24.10;12.57;;;3.60;92.40;;;;;;5013715;28;20030;-71
2021/12/27 01:18:33;;;;;;;25.57;11.60;;;3.70;92.50;;;;;;5013847;28;20034;-72
2021/12/27 01:20:59;;;;;;;21.77;11.50;;;3.80;92.60;;;;;;5013704;28;20032;-72
2021/12/27 01:23:24;;;;;;;21.77;11.70;;;3.80;92.70;;;;;;4996466;28;20034;-72
2021/12/27 01:25:50;;;;;;;20.13;11.40;;;3.80;92.70;;;;;;5014090;28;20034;-72
2021/12/27 01:28:18;;;;;;;24.37;12.90;;;3.80;92.60;;;;;;5013577;28;20018;-72
2021/12/27 01:30:48;;;;;;;22.27;11.83;;;3.80;92.70;;;;;;5013563;28;20079;-72
2021/12/27 01:33:19;;;;;;;21.37;12.23;;;3.90;92.80;;;;;;5012742;28;20034;-72
2021/12/27 01:35:46;;;;;;;20.23;11.67;;;3.80;92.80;;;;;;5013484;28;20029;-72
2021/12/27 01:38:13;;;;;;;20.80;11.80;;;3.80;92.80;;;;;;5011961;28;20029;-71
2021/12/27 01:40:41;;;;;;;21.13;12.40;;;3.80;93.10;;;;;;5013590;28;20110;-72
2021/12/27 01:43:09;;;;;;;20.53;11.93;;;3.80;93.00;;;;;;5013534;28;20033;-72
2021/12/27 01:45:45;;;;;;;23.37;12.70;;;3.80;93.00;;;;;;5032262;28;20128;-72
2021/12/27 01:48:13;;;;;;;23.23;12.73;;;3.80;93.10;;;;;;5032793;28;20029;-72
2021/12/27 01:50:42;;;;;;;19.23;11.57;;;3.80;93.10;;;;;;5015365;28;20476;-72
2021/12/27 01:53:09;;;;;;;19.97;12.23;;;3.80;93.40;;;;;;5032918;28;20022;-72
2021/12/27 01:55:36;;;;;;;21.23;12.07;;;3.80;93.20;;;;;;5033188;28;20037;-72
2021/12/27 01:58:02;;;;;;;24.97;12.93;;;3.80;93.10;;;;;;5033169;28;20033;-72
2021/12/27 02:00:28;;;;;;;21.03;11.23;;;3.80;93.20;;;;;;5033035;28;20029;-72
2021/12/27 02:02:54;;;;;;;21.97;12.20;;;3.80;93.20;;;;;;5033434;28;20057;-72
2021/12/27 02:05:20;;;;;;;20.97;11.97;;;3.80;93.30;;;;;;4998993;28;20049;-72
2021/12/27 02:07:46;;;;;;;21.60;12.00;;;3.80;93.30;;;;;;5015406;28;20025;-72
2021/12/27 02:10:13;;;;;;;21.37;11.57;;;3.80;93.30;;;;;;5015515;28;20033;-72
2021/12/27 02:12:39;;;;;;;23.80;11.63;;;3.90;93.40;;;;;;5018757;28;20021;-72
2021/12/27 02:15:09;;;;;;;23.20;13.00;;;3.80;93.40;;;;;;5036793;28;20022;-72
2021/12/27 02:17:36;;;;;;;19.63;11.30;;;3.90;93.60;;;;;;4999634;28;20113;-72
2021/12/27 02:20:04;;;;;;;21.17;12.20;;;3.90;93.50;;;;;;5015795;28;20034;-72
2021/12/27 02:22:35;;;;;;;22.33;12.23;;;3.90;93.60;;;;;;5016861;28;20494;-72
2021/12/27 02:25:05;;;;;;;20.07;11.47;;;3.90;93.70;;;;;;4999293;28;20065;-72
2021/12/27 02:27:31;;;;;;;18.73;11.23;;;3.90;93.80;;;;;;5003079;28;20021;-72
2021/12/27 02:29:56;;;;;;;20.20;12.07;;;3.90;93.80;;;;;;5036421;28;20026;-72
2021/12/27 02:32:22;;;;;;;22.67;12.80;;;3.90;94.00;;;;;;5002286;28;20022;-72
2021/12/27 02:34:48;;;;;;;21.50;12.77;;;3.90;93.90;;;;;;5018382;28;20032;-72
2021/12/27 02:37:13;;;;;;;21.00;11.30;;;3.90;93.90;;;;;;5018428;28;20022;-71
2021/12/27 02:39:39;;;;;;;21.70;11.63;;;3.90;93.90;;;;;;5018951;28;20028;-72
2021/12/27 02:42:05;;;;;;;20.03;12.20;;;3.90;93.90;;;;;;5036587;28;20482;-72
2021/12/27 02:44:33;;;;;;;22.13;12.60;;;4.00;94.00;;;;;;5018713;28;20049;-72
2021/12/27 02:46:59;;;;;;;21.53;11.43;;;3.90;94.00;;;;;;5018584;28;20390;-72
2021/12/27 02:49:24;;;;;;;21.47;11.63;;;4.00;94.00;;;;;;5018411;28;20037;-72
2021/12/27 02:51:50;;;;;;;21.30;11.67;;;3.90;94.00;;;;;;5036351;28;20029;-72
2021/12/27 02:54:16;;;;;;;21.27;11.57;;;3.90;94.10;;;;;;5035862;28;20042;-72
2021/12/27 02:56:42;;;;;;;20.63;11.33;;;4.00;94.20;;;;;;5036475;28;20512;-72
2021/12/27 02:59:07;;;;;;;23.53;12.13;;;4.00;94.20;;;;;;5018503;28;20029;-72
2021/12/27 03:01:33;;;;;;;21.80;12.27;;;4.00;94.20;;;;;;5017631;28;20486;-72
2021/12/27 03:03:58;;;;;;;21.33;11.97;;;4.00;94.20;;;;;;5035893;28;20030;-72
2021/12/27 03:06:24;;;;;;;22.47;12.17;;;4.00;94.30;;;;;;5001896;28;20200;-72
2021/12/27 03:08:51;;;;;;;23.97;12.67;;;4.00;94.20;;;;;;5017912;28;20049;-72
2021/12/27 03:11:17;;;;;;;21.13;12.17;;;4.00;94.30;;;;;;5035614;28;20025;-72
2021/12/27 03:13:53;;;;;;;23.10;12.30;;;4.00;94.30;;;;;;5001532;28;20029;-72
2021/12/27 03:16:21;;;;;;;20.83;11.23;;;4.00;94.30;;;;;;5017805;28;20036;-72
2021/12/27 03:18:49;;;;;;;21.93;12.43;;;4.00;94.40;;;;;;5035391;28;20056;-72
2021/12/27 03:21:15;;;;;;;18.57;11.57;;;4.00;94.40;;;;;;5035430;28;20103;-72
2021/12/27 03:23:42;;;;;;;19.13;10.83;;;4.10;94.50;;;;;;5017507;28;20032;-71
2021/12/27 03:26:09;;;;;;;19.90;11.37;;;4.10;94.50;;;;;;5035768;28;20037;-72
2021/12/27 03:28:37;;;;;;;21.73;12.27;;;4.10;94.50;;;;;;5001299;28;20405;-76
2021/12/27 03:31:03;;;;;;;22.27;12.13;;;4.20;94.50;;;;;;5035217;28;20052;-76
2021/12/27 03:33:29;;;;;;;20.70;11.87;;;4.10;94.60;;;;;;5001084;28;20028;-77
2021/12/27 03:38:29;;;;;;;20.00;11.83;;;4.10;94.70;;;;;;5035498;28;20049;-76
2021/12/27 03:40:54;;;;;;;23.07;12.40;;;4.10;94.70;;;;;;5017331;28;20020;-76
2021/12/27 03:43:20;;;;;;;22.50;12.43;;;4.20;94.70;;;;;;5017324;28;20112;-76
2021/12/27 03:45:45;;;;;;;19.47;10.47;;;4.10;94.70;;;;;;5034887;28;20041;-77
2021/12/27 03:48:12;;;;;;;22.83;12.90;;;4.10;94.70;;;;;;5017068;28;20087;-76
2021/12/27 03:50:38;;;;;;;21.90;11.27;;;4.20;94.80;;;;;;5017033;28;20041;-77
2021/12/27 03:53:05;;;;;;;20.13;12.03;;;4.10;94.80;;;;;;5034811;28;20473;-77
2021/12/27 03:55:32;;;;;;;18.10;11.07;;;4.20;94.90;;;;;;5034734;28;20029;-77
2021/12/27 03:58:07;;;;;;;24.07;12.13;;;4.20;94.90;;;;;;5017118;28;20028;-77
2021/12/27 04:01:00;;;;;;;26.70;13.23;;;4.20;95.00;;;;;;5016888;28;20108;-76
2021/12/27 04:03:27;;;;;;;23.73;12.73;;;4.20;95.00;;;;;;5034588;28;20024;-71
2021/12/27 04:05:53;;;;;;;20.57;12.10;;;4.20;95.00;;;;;;5034758;28;20104;-71
2021/12/27 04:08:21;;;;;;;30.07;12.17;;;4.20;95.00;;;;;;5034971;28;20034;-72
2021/12/27 04:10:47;;;;;;;26.37;12.73;;;4.30;95.10;;;;;;5034828;28;20033;-71
2021/12/27 04:13:13;;;;;;;22.27;11.63;;;4.30;95.10;;;;;;5034371;28;20048;-71
2021/12/27 04:15:40;;;;;;;27.60;12.23;;;4.30;95.10;;;;;;5016471;28;20481;-72
2021/12/27 04:18:09;;;;;;;22.90;12.63;;;4.30;95.10;;;;;;5034174;28;20021;-72
2021/12/27 04:20:35;;;;;;;26.77;13.80;;;4.30;95.10;;;;;;5016993;28;20021;-72
2021/12/27 04:23:00;;;;;;;21.57;12.00;;;4.30;95.10;;;;;;5016570;28;20037;-75
2021/12/27 04:25:26;;;;;;;23.97;12.50;;;4.30;95.20;;;;;;5035459;28;20087;-76
2021/12/27 04:27:52;;;;;;;23.07;12.33;;;4.30;95.30;;;;;;5019773;28;20584;-76
2021/12/27 04:30:19;;;;;;;29.97;13.50;;;4.30;95.30;;;;;;5037314;28;20029;-76
2021/12/27 04:32:45;;;;;;;27.83;12.97;;;4.30;95.30;;;;;;5017013;28;20053;-75
2021/12/27 04:35:11;;;;;;;26.07;12.47;;;4.30;95.40;;;;;;5015840;28;20060;-76
2021/12/27 04:37:37;;;;;;;23.10;12.90;;;4.30;95.40;;;;;;5017088;28;20030;-76
2021/12/27 04:40:06;;;;;;;23.30;12.70;;;4.30;95.40;;;;;;5034258;28;20033;-76
2021/12/27 04:42:32;;;;;;;29.00;13.87;;;4.30;95.50;;;;;;5034073;28;20466;-76
2021/12/27 04:45:00;;;;;;;25.57;12.83;;;4.30;95.50;;;;;;5016459;28;20077;-76
2021/12/27 04:47:26;;;;;;;24.07;12.20;;;4.40;95.60;;;;;;5016245;28;20453;-77
2021/12/27 04:49:52;;;;;;;24.60;12.93;;;4.40;95.90;;;;;;5016297;28;20057;-76
2021/12/27 04:52:17;;;;;;;28.80;14.47;;;4.40;95.70;;;;;;5016189;28;20030;-76
2021/12/27 04:54:43;;;;;;;30.93;14.00;;;4.40;95.70;;;;;;4999727;28;20528;-76
2021/12/27 04:57:09;;;;;;;23.57;13.33;;;4.40;95.70;;;;;;5033899;28;20100;-76
2021/12/27 04:59:34;;;;;;;28.47;13.60;;;4.40;95.80;;;;;;5033943;28;20053;-76
2021/12/27 05:02:00;;;;;;;25.53;13.90;;;4.40;95.80;;;;;;5033714;28;20021;-76
2021/12/27 05:04:26;;;;;;;30.67;13.93;;;4.50;95.90;;;;;;5033650;28;20030;-77
2021/12/27 05:06:51;;;;;;;30.50;13.57;;;4.50;95.90;;;;;;5033394;28;20031;-76
2021/12/27 05:09:17;;;;;;;23.70;13.77;;;4.50;95.90;;;;;;5015718;28;20121;-76
2021/12/27 05:11:43;;;;;;;27.67;14.70;;;4.50;95.90;;;;;;5015835;28;20029;-76
2021/12/27 05:14:08;;;;;;;27.07;13.67;;;4.50;96.00;;;;;;5033574;28;20034;-76
2021/12/27 05:16:34;;;;;;;30.73;14.00;;;4.50;96.00;;;;;;5033386;28;20029;-76
2021/12/27 05:19:00;;;;;;;26.77;13.90;;;4.50;96.00;;;;;;5033437;28;20113;-76
2021/12/27 05:21:25;;;;;;;25.00;15.30;;;4.60;96.10;;;;;;5033384;28;20041;-76
2021/12/27 05:23:52;;;;;;;27.63;15.07;;;4.60;96.10;;;;;;5033491;28;20033;-76
2021/12/27 05:26:18;;;;;;;28.77;15.70;;;4.60;96.10;;;;;;5033406;28;20520;-76
2021/12/27 05:28:44;;;;;;;26.50;14.97;;;4.60;96.10;;;;;;5033253;28;20083;-76
2021/12/27 05:31:10;;;;;;;28.20;14.70;;;4.60;96.10;;;;;;5015566;28;20018;-76
2021/12/27 05:33:35;;;;;;;24.90;13.30;;;4.60;96.20;;;;;;5033155;28;20030;-76
2021/12/27 05:36:01;;;;;;;31.17;15.73;;;4.60;96.20;;;;;;5033232;28;20029;-76
2021/12/27 05:38:27;;;;;;;27.63;15.63;;;4.60;96.30;;;;;;5015692;28;20077;-76
2021/12/27 05:40:54;;;;;;;28.60;14.60;;;4.60;96.30;;;;;;5033177;28;20493;-76
2021/12/27 05:43:21;;;;;;;28.87;15.10;;;4.60;96.30;;;;;;5032943;28;20042;-76
2021/12/27 05:45:47;;;;;;;25.77;13.97;;;4.60;96.30;;;;;;5035592;28;20080;-76
2021/12/27 05:48:12;;;;;;;24.63;14.17;;;4.70;96.40;;;;;;5019558;28;20470;-77
2021/12/27 05:50:38;;;;;;;26.60;15.17;;;4.70;96.40;;;;;;5035520;28;20159;-76
2021/12/27 05:53:04;;;;;;;28.50;14.90;;;4.70;96.30;;;;;;5019150;28;20486;-76
2021/12/27 05:55:30;;;;;;;25.57;15.20;;;4.70;96.30;;;;;;5037033;28;20470;-76
2021/12/27 05:57:56;;;;;;;28.37;14.97;;;4.70;96.30;;;;;;5019140;28;20429;-76
2021/12/27 06:00:22;;;;;;;26.87;14.87;;;4.70;96.30;;;;;;5019207;28;20030;-76
2021/12/27 06:02:48;;;;;;;27.27;15.37;;;4.70;96.30;;;;;;5036430;28;20485;-77
2021/12/27 06:05:17;;;;;;;26.57;15.20;;;4.70;96.30;;;;;;5054890;28;20033;-76
2021/12/27 06:07:42;;;;;;;30.67;15.10;;;4.70;96.30;;;;;;5056731;28;20021;-76
2021/12/27 06:10:09;;;;;;;26.13;14.20;;;4.70;96.30;;;;;;5056657;28;20436;-76
2021/12/27 06:12:35;;;;;;;28.90;16.73;;;4.70;96.40;;;;;;5022274;28;20029;-76
2021/12/27 06:15:01;;;;;;;26.07;14.53;;;4.70;96.40;;;;;;5001911;28;20437;-77
2021/12/27 06:17:27;;;;;;;29.73;15.57;;;4.80;96.60;;;;;;5035947;28;20041;-77
2021/12/27 06:19:52;;;;;;;26.93;15.10;;;4.80;96.60;;;;;;5018991;28;20040;-77
2021/12/27 06:22:19;;;;;;;29.77;16.00;;;4.90;96.70;;;;;;5018793;28;20497;-76
2021/12/27 06:24:44;;;;;;;27.87;15.00;;;4.80;96.70;;;;;;5036304;28;20029;-76
2021/12/27 06:27:10;;;;;;;27.13;14.90;;;4.90;96.70;;;;;;5036573;28;20029;-76
2021/12/27 06:29:35;;;;;;;26.10;14.40;;;4.90;96.70;;;;;;5036455;28;20416;-76
2021/12/27 06:32:01;;;;;;;27.27;14.93;;;4.90;96.80;;;;;;5036271;28;20052;-77
2021/12/27 06:34:27;;;;;;;25.00;14.13;;;4.90;96.80;;;;;;5018594;28;20136;-76
2021/12/27 06:36:52;;;;;;;25.27;14.13;;;4.90;96.80;;;;;;5002204;28;20033;-76
2021/12/27 06:39:18;;;;;;;29.47;14.50;;;4.90;96.80;;;;;;5036160;28;20366;-76
2021/12/27 06:41:44;;;;;;;29.20;14.20;;;4.90;96.80;;;;;;5018186;28;20026;-76
2021/12/27 06:44:09;;;;;;;30.10;15.27;;;5.00;96.80;;;;;;5018174;28;20140;-76
2021/12/27 06:46:35;;;;;;;23.23;14.40;;;4.90;96.90;;;;;;5018516;28;20398;-76
2021/12/27 06:49:01;;;;;;;25.60;14.47;;;4.90;96.90;;;;;;5036290;28;20457;-76
2021/12/27 06:51:26;;;;;;;23.17;13.47;;;4.90;97.00;;;;;;5018424;28;20684;-77
2021/12/27 06:53:52;;;;;;;24.30;13.33;;;5.00;97.00;;;;;;5018144;28;20476;-77
2021/12/27 06:56:17;;;;;;;24.57;13.90;;;5.00;97.00;;;;;;5017719;28;20033;-76
2021/12/27 06:58:43;;;;;;;26.00;13.93;;;5.00;97.10;;;;;;5036357;28;20029;-76
2021/12/27 07:01:09;;;;;;;28.23;14.57;;;5.10;97.10;;;;;;4998363;28;20033;-76
2021/12/27 07:03:35;;;;;;;26.13;15.17;;;5.10;97.20;;;;;;4998624;28;20084;-76
2021/12/27 07:06:00;;;;;;;22.77;14.33;;;5.00;97.10;;;;;;5016083;28;20044;-76
2021/12/27 07:08:27;;;;;;;25.10;14.23;;;5.10;97.10;;;;;;5016068;28;20482;-76
2021/12/27 07:10:53;;;;;;;23.80;14.57;;;5.10;97.10;;;;;;5022368;28;20025;-76
2021/12/27 07:13:18;;;;;;;27.80;14.53;;;5.10;97.10;;;;;;5017309;28;20033;-76
2021/12/27 07:15:45;;;;;;;25.43;14.13;;;5.10;97.10;;;;;;5001231;28;20033;-77
2021/12/27 07:18:20;;;;;;;32.10;14.63;;;5.10;97.10;;;;;;5035866;28;20087;-76
2021/12/27 07:20:46;;;;;;;25.83;14.03;;;5.10;97.20;;;;;;5018679;28;20097;-77
2021/12/27 07:23:12;;;;;;;25.53;13.33;;;5.10;97.20;;;;;;5017718;28;20068;-77
2021/12/27 07:25:38;;;;;;;22.00;13.30;;;5.20;97.30;;;;;;5035582;28;20037;-76
2021/12/27 07:28:04;;;;;;;24.63;14.43;;;5.20;97.30;;;;;;5035397;28;20164;-76
2021/12/27 07:30:30;;;;;;;27.37;14.00;;;5.20;97.30;;;;;;5017365;28;20034;-76
2021/12/27 07:32:57;;;;;;;22.73;13.93;;;5.20;97.30;;;;;;5027021;28;20033;-76
2021/12/27 07:35:24;;;;;;;28.33;14.13;;;5.20;97.40;;;;;;5006652;28;20117;-76
2021/12/27 07:37:50;;;;;;;24.03;14.17;;;5.20;97.40;;;;;;5035029;28;20035;-76
2021/12/27 07:40:15;;;;;;;26.40;15.50;;;5.20;97.40;;;;;;5035261;28;20037;-76
2021/12/27 07:42:41;;;;;;;25.53;13.60;;;5.20;97.40;;;;;;5017456;28;20053;-76
2021/12/27 07:45:07;;;;;;;25.70;14.20;;;5.20;97.40;;;;;;5015651;28;20049;-76
2021/12/27 07:47:33;;;;;;;23.37;13.53;;;5.30;97.50;;;;;;5015433;28;20401;-76
2021/12/27 07:49:59;;;;;;;24.03;13.13;;;5.30;97.50;;;;;;5015888;28;20071;-76
2021/12/27 07:52:25;;;;;;;20.73;12.77;;;5.30;97.50;;;;;;5034474;28;20061;-76
2021/12/27 07:54:50;;;;;;;23.23;13.87;;;5.30;97.50;;;;;;5034536;28;20041;-76
2021/12/27 07:57:16;;;;;;;22.20;13.07;;;5.30;97.60;;;;;;5017161;28;20026;-76
2021/12/27 07:59:42;;;;;;;22.33;12.67;;;5.30;97.60;;;;;;5013422;28;20108;-77
2021/12/27 08:02:10;;;;;;;24.27;13.87;;;5.40;97.60;;;;;;5034706;28;20120;-76
2021/12/27 08:04:37;;;;;;;21.20;13.13;;;5.40;97.60;;;;;;5017069;28;20413;-76
2021/12/27 08:07:03;;;;;;;21.53;11.07;;;5.40;97.60;;;;;;5016386;28;20037;-76
2021/12/27 08:09:28;;;;;;;20.03;12.87;;;5.40;97.70;;;;;;5025191;28;20033;-77
2021/12/27 08:11:54;;;;;;;21.17;12.77;;;5.40;97.70;;;;;;5003097;28;20095;-76
2021/12/27 08:14:20;;;;;;;23.97;13.33;;;5.50;97.80;;;;;;5008394;28;20489;-76
2021/12/27 08:16:45;;;;;;;19.57;11.77;;;5.50;97.80;;;;;;5034968;28;20030;-76
2021/12/27 08:19:11;;;;;;;22.47;12.83;;;5.50;97.80;;;;;;5016854;28;20029;-76
2021/12/27 08:21:37;;;;;;;22.10;13.47;;;5.60;97.80;;;;;;5004456;28;20039;-76
2021/12/27 08:24:05;;;;;;;20.87;12.40;;;5.60;97.80;;;;;;5032290;28;20065;-76
2021/12/27 08:26:31;;;;;;;21.50;12.80;;;5.60;97.80;;;;;;5031851;28;20025;-77
2021/12/27 08:29:06;;;;;;;21.83;12.13;;;5.60;97.90;;;;;;5125430;27;20404;-77
2021/12/27 08:31:32;;;;;;;24.27;13.53;;;5.60;97.90;;;;;;5103763;28;20478;-77
2021/12/27 08:33:57;;;;;;;18.33;12.13;;;5.60;97.90;;;;;;5125049;28;20110;-77
2021/12/27 08:36:23;;;;;;;19.70;11.70;;;5.70;98.00;;;;;;5128922;28;20114;-77
2021/12/27 08:38:50;;;;;;;19.30;11.73;;;5.70;98.00;;;;;;5111799;28;20426;-78
2021/12/27 08:41:17;;;;;;;22.03;13.63;;;5.70;98.00;;;;;;5131756;27;20436;-77
2021/12/27 08:43:43;;;;;;;25.23;14.33;;;5.70;98.00;;;;;;5131880;27;20054;-76
2021/12/27 08:46:09;;;;;;;20.73;12.53;;;5.80;98.00;;;;;;5131801;27;20066;-77
2021/12/27 08:48:35;;;;;;;22.33;12.17;;;5.70;97.90;;;;;;5130031;28;20027;-77
2021/12/27 08:51:02;;;;;;;21.03;12.87;;;5.80;98.20;;;;;;5130902;28;20046;-76
2021/12/27 08:53:28;;;;;;;18.97;11.87;;;5.80;98.00;;;;;;5131593;27;20429;-77
2021/12/27 08:55:54;;;;;;;22.33;12.33;;;5.90;97.90;;;;;;5129847;28;20080;-77
2021/12/27 08:58:19;;;;;;;20.77;12.93;;;5.90;97.90;;;;;;5130136;28;20070;-77
2021/12/27 09:00:45;;;;;;;21.17;12.33;;;5.80;97.80;;;;;;5129786;28;20403;-77
2021/12/27 09:03:14;;;;;;;22.70;13.17;;;5.90;97.80;;;;;;5131229;27;20059;-77
2021/12/27 09:05:41;;;;;;;21.60;13.07;;;6.00;97.90;;;;;;5130158;28;20035;-76
2021/12/27 09:08:06;;;;;;;18.17;11.10;;;5.90;97.80;;;;;;5130932;27;20031;-77
2021/12/27 09:10:32;;;;;;;20.77;11.60;;;5.90;97.80;;;;;;5130301;28;20399;-76
2021/12/27 09:13:00;;;;;;;20.60;12.20;;;6.00;97.80;;;;;;5131594;27;20447;-76
2021/12/27 09:15:26;;;;;;;18.47;11.63;;;6.00;97.80;;;;;;5130910;27;20544;-76
2021/12/27 09:17:52;;;;;;;20.53;12.30;;;6.00;97.70;;;;;;5112563;28;20075;-76
2021/12/27 09:20:18;;;;;;;19.43;11.73;;;6.00;97.70;;;;;;5129802;28;20104;-76
2021/12/27 09:22:43;;;;;;;19.17;11.07;;;6.00;97.70;;;;;;5129957;28;20043;-76
2021/12/27 09:25:09;;;;;;;22.37;11.27;;;6.00;97.70;;;;;;5112506;28;20035;-77
2021/12/27 09:27:35;;;;;;;18.20;10.87;;;6.00;97.70;;;;;;5130187;28;20048;-76
2021/12/27 09:30:00;;;;;;;17.83;11.50;;;6.00;97.70;;;;;;5130239;27;20038;-77
2021/12/27 09:32:26;;;;;;;18.83;11.17;;;6.10;97.80;;;;;;5130551;28;20118;-77
2021/12/27 09:34:52;;;;;;;20.67;12.17;;;6.00;97.80;;;;;;5129587;28;20477;-77
2021/12/27 09:37:18;;;;;;;20.27;11.00;;;6.10;97.80;;;;;;5130465;28;20102;-78
2021/12/27 09:39:44;;;;;;;18.10;10.90;;;6.10;97.80;;;;;;5120648;27;20107;-76
2021/12/27 09:42:10;;;;;;;22.07;12.00;;;6.10;97.80;;;;;;5115561;28;20066;-76
2021/12/27 09:44:36;;;;;;;18.07;11.73;;;6.10;97.80;;;;;;5115752;28;20084;-76
2021/12/27 09:47:01;;;;;;;20.67;11.73;;;6.20;97.90;;;;;;5114086;28;20068;-76
2021/12/27 09:49:29;;;;;;;19.37;11.10;;;6.20;98.00;;;;;;5104964;28;20123;-76
2021/12/27 09:51:57;;;;;;;17.60;10.90;;;6.30;98.00;;;;;;5116070;28;20435;-76
2021/12/27 09:54:26;;;;;;;17.70;10.10;;;6.30;98.10;;;;;;5115945;28;20051;-76
2021/12/27 09:56:52;;;;;;;16.03;10.37;;;6.50;98.40;;;;;;5116825;28;20383;-76
2021/12/27 09:59:18;;;;;;;14.50;9.10;;;6.70;98.70;;;;;;5112412;27;20029;-76
2021/12/27 10:01:43;;;;;;;17.77;8.97;;;6.90;98.90;;;;;;5113328;28;20035;-76
2021/12/27 10:04:09;;;;;;;16.00;8.77;;;7.20;99.10;;;;;;5094218;28;20372;-76
2021/12/27 10:06:34;;;;;;;17.20;8.33;;;7.50;99.10;;;;;;5113255;28;20114;-76
2021/12/27 10:09:07;;;;;;;14.00;8.30;;;7.70;99.40;;;;;;5114802;28;20061;-76
2021/12/27 10:11:37;;;;;;;11.77;7.60;;;8.20;99.60;;;;;;5104212;28;20383;-76
2021/12/27 10:14:04;;;;;;;12.20;7.10;;;8.60;99.80;;;;;;5116057;28;20073;-76
2021/12/27 10:16:32;;;;;;;17.23;7.93;;;8.80;99.70;;;;;;5114428;28;20027;-76
2021/12/27 10:19:03;;;;;;;11.97;7.27;;;8.80;99.10;;;;;;5115911;28;20101;-76
2021/12/27 10:21:28;;;;;;;11.47;7.03;;;8.90;98.60;;;;;;5114476;28;20030;-76
2021/12/27 10:24:09;;;;;;;29.67;8.53;;;8.90;98.20;;;;;;5116214;28;20107;-76
2021/12/27 10:26:36;;;;;;;16.90;8.00;;;8.80;97.80;;;;;;5116175;28;20028;-76
2021/12/27 10:29:11;;;;;;;14.43;8.33;;;8.80;97.50;;;;;;5097646;28;20138;-76
2021/12/27 10:32:14;;;;;;;14.73;7.93;;;8.70;97.20;;;;;;5115198;28;20471;-76
2021/12/27 10:34:40;;;;;;;12.53;7.70;;;8.70;97.00;;;;;;5053166;28;20032;-76
2021/12/27 10:37:08;;;;;;;14.97;7.47;;;8.80;96.80;;;;;;5082910;28;20040;-76
2021/12/27 10:39:46;;;;;;;14.40;8.47;;;8.70;96.60;;;;;;5094009;28;20111;-77
2021/12/27 10:42:28;;;;;;;15.90;7.73;;;8.70;96.80;;;;;;5109150;28;20054;-76
2021/12/27 10:44:57;;;;;;;16.73;7.70;;;8.80;96.70;;;;;;5115733;28;20363;-76
2021/12/27 10:47:39;;;;;;;13.73;8.00;;;8.90;96.40;;;;;;5115505;28;20379;-75
2021/12/27 10:50:26;;;;;;;12.07;7.33;;;8.90;96.10;;;;;;5114738;28;20024;-76
2021/12/27 10:52:57;;;;;;;14.23;6.80;;;8.90;95.70;;;;;;5115436;28;20016;-75
2021/12/27 10:55:35;;;;;;;13.83;7.47;;;8.80;95.60;;;;;;5114388;28;20379;-75
2021/12/27 10:58:22;;;;;;;12.30;7.97;;;8.80;95.60;;;;;;5114427;28;20482;-76
2021/12/27 11:01:00;;;;;;;13.90;7.83;;;8.80;95.70;;;;;;5108751;28;20503;-76
2021/12/27 11:03:33;;;;;;;13.20;7.10;;;8.90;95.70;;;;;;5093411;28;20540;-75
2021/12/27 11:06:03;;;;;;;12.57;7.22;;;9.00;95.70;;;;;;5094885;28;20063;-75
2021/12/27 11:08:29;;;;;;;12.37;6.43;;;9.30;96.20;;;;;;5098348;28;20424;-76
2021/12/27 11:10:55;;;;;;;11.73;6.72;;;9.70;96.80;;;;;;5109057;28;20024;-76
2021/12/27 11:13:21;;;;;;;15.68;5.53;;;10.10;96.90;;;;;;5113212;28;20110;-76
2021/12/27 11:15:47;;;;;;;10.90;5.43;;;10.40;97.00;;;;;;5114679;28;20468;-76
2021/12/27 11:18:14;;;;;;;8.27;5.65;;;10.90;97.00;;;;;;5096540;28;20094;-76
2021/12/27 11:20:44;;;;;;;8.43;5.18;;;11.20;96.60;;;;;;5093238;28;20480;-76
2021/12/27 11:23:11;;;;;;;9.70;5.40;;;11.40;95.80;;;;;;5094690;28;20069;-76
2021/12/27 11:25:40;;;;;;;8.68;5.07;;;11.50;95.20;;;;;;5113350;28;20055;-75
2021/12/27 11:28:26;;;;;;;9.13;5.70;;;11.50;94.60;;;;;;5112477;28;20123;-76
2021/12/27 11:30:52;;;;;;;9.88;6.30;;;11.40;93.80;;;;;;5114391;28;20104;-76
2021/12/27 11:33:20;;;;;;;11.27;6.20;;;11.30;92.90;;;;;;5113353;28;20380;-76
2021/12/27 11:35:51;;;;;;;12.07;6.88;;;11.20;92.30;;;;;;5113220;28;20479;-76
2021/12/27 11:38:28;;;;;;;8.85;5.72;;;11.10;92.30;;;;;;5094080;28;20514;-76
2021/12/27 11:40:54;;;;;;;11.68;6.80;;;11.10;92.00;;;;;;5095785;28;20042;-76
2021/12/27 11:43:20;;;;;;;10.18;6.72;;;11.00;91.90;;;;;;5113242;28;20039;-76
2021/12/27 11:45:55;;;;;;;10.65;6.85;;;10.90;91.60;;;;;;5114209;28;20388;-76
2021/12/27 11:48:23;;;;;;;11.05;6.57;;;10.80;91.60;;;;;;5113079;28;20019;-76
2021/12/27 11:50:58;;;;;;;12.73;6.63;;;10.70;91.50;;;;;;5114295;28;20385;-76
2021/12/27 11:53:37;;;;;;;11.68;6.40;;;10.70;91.40;;;;;;5104798;28;20614;-76
2021/12/27 11:56:08;;;;;;;11.63;7.17;;;10.50;91.30;;;;;;5106042;28;20410;-76
2021/12/27 11:58:37;;;;;;;12.03;7.20;;;10.50;91.20;;;;;;5113088;28;20465;-76
2021/12/27 12:01:22;;;;;;;10.13;6.70;;;10.40;91.10;;;;;;5113994;28;20027;-76
2021/12/27 12:03:58;;;;;;;11.30;6.37;;;10.30;91.10;;;;;;5113538;28;20063;-75
2021/12/27 12:06:43;;;;;;;12.50;7.03;;;10.30;91.10;;;;;;5113907;28;20104;-77
2021/12/27 12:09:20;;;;;;;11.13;6.70;;;10.20;91.40;;;;;;5112406;28;20028;-76
2021/12/27 12:12:05;;;;;;;11.30;6.97;;;10.30;91.60;;;;;;5113454;28;20024;-74
2021/12/27 12:14:34;;;;;;;9.77;5.77;;;10.40;91.70;;;;;;5113716;28;20032;-76
2021/12/27 12:17:02;;;;;;;12.43;7.03;;;10.50;91.60;;;;;;5093677;28;20095;-75
2021/12/27 12:19:34;;;;;;;11.20;6.93;;;10.50;91.50;;;;;;5093565;28;20559;-76
2021/12/27 12:22:00;;;;;;;11.60;5.93;;;10.50;91.40;;;;;;5109357;28;20032;-75
2021/12/27 12:24:25;;;;;;;11.70;6.70;;;10.40;91.30;;;;;;5112254;28;20520;-74
2021/12/27 12:27:01;;;;;;;9.50;5.83;;;10.40;91.30;;;;;;5113205;28;20028;-74
2021/12/27 12:29:37;;;;;;;10.63;6.33;;;10.30;91.20;;;;;;5113545;28;20145;-75
2021/12/27 12:32:06;;;;;;;10.63;6.23;;;10.20;91.10;;;;;;5113221;28;20023;-74
2021/12/27 12:34:32;;;;;;;10.77;6.47;;;10.20;91.20;;;;;;5113531;28;20055;-75
2021/12/27 12:37:04;;;;;;;14.00;6.13;;;10.10;91.20;;;;;;5113541;28;20102;-75
2021/12/27 12:39:36;;;;;;;11.67;6.63;;;10.00;91.20;;;;;;5113642;28;20078;-75
2021/12/27 12:42:17;;;;;;;11.37;6.17;;;10.00;91.30;;;;;;5113446;28;20404;-75
2021/12/27 12:44:51;;;;;;;11.30;6.37;;;9.90;91.40;;;;;;5111807;28;20577;-75
2021/12/27 12:47:18;;;;;;;10.67;5.73;;;9.90;91.50;;;;;;5113650;28;20038;-75